createdAt,value
2022-11-21T00:00:03.637Z,40.1
2022-11-21T00:03:21.846Z,48.3
2022-11-21T00:06:09.114Z,37.3
2022-11-21T00:08:56.700Z,40.1
2022-11-21T00:11:43.918Z,39.9
2022-11-21T00:14:31.077Z,42.8
2022-11-21T00:17:19.325Z,36
2022-11-21T00:20:06.570Z,38.7
2022-11-21T00:22:54.414Z,39.6
2022-11-21T00:25:41.594Z,41.7
2022-11-21T00:28:28.895Z,37.6
2022-11-21T00:31:16.286Z,36.7
2022-11-21T00:34:05.211Z,40.6
2022-11-21T00:36:54.186Z,41.6
2022-11-21T00:39:41.591Z,34.7
2022-11-21T00:42:28.842Z,37.8
2022-11-21T00:45:22.744Z,35.8
2022-11-21T00:48:11.556Z,40.4
2022-11-21T00:50:58.877Z,36.9
2022-11-21T00:53:46.406Z,36.7
2022-11-21T00:56:33.701Z,35.6
2022-11-21T00:59:21.000Z,38.3
2022-11-21T01:02:08.343Z,37.6
2022-11-21T01:04:55.837Z,37.7
2022-11-21T01:07:43.230Z,35.3
2022-11-21T01:10:30.557Z,35.3
2022-11-21T01:13:19.269Z,38.7
2022-11-21T01:16:06.594Z,40.7
2022-11-21T01:18:56.599Z,36.6
2022-11-21T01:21:44.080Z,39.8
2022-11-21T01:24:31.913Z,38.8
2022-11-21T01:27:19.129Z,34
2022-11-21T01:30:06.406Z,37.2
2022-11-21T01:32:54.872Z,33.3
2022-11-21T01:35:42.248Z,39.6
2022-11-21T01:38:29.626Z,33.3
2022-11-21T01:41:18.118Z,32.7
2022-11-21T01:44:07.844Z,33.7
2022-11-21T01:47:04.200Z,39.4
2022-11-21T01:49:51.679Z,37.7
2022-11-21T01:52:41.201Z,30.9
2022-11-21T01:55:28.571Z,36
2022-11-21T01:58:15.985Z,32.5
2022-11-21T02:01:03.929Z,32.3
2022-11-21T02:03:51.599Z,34.3
2022-11-21T02:06:41.799Z,33.3
2022-11-21T02:09:29.619Z,37.6
2022-11-21T02:12:20.858Z,33.8
2022-11-21T02:15:14.686Z,40.4
2022-11-21T02:18:03.093Z,37.1
2022-11-21T02:20:54.394Z,39
2022-11-21T02:23:48.091Z,34.7
2022-11-21T02:26:43.499Z,36.1
2022-11-21T02:29:33.347Z,35.9
2022-11-21T02:32:20.732Z,37.2
2022-11-21T02:35:09.376Z,32.3
2022-11-21T02:37:56.741Z,38.1
2022-11-21T02:40:47.115Z,39.4
2022-11-21T02:43:41.006Z,41.6
2022-11-21T02:46:34.426Z,33.9
2022-11-21T02:49:30.870Z,37.7
2022-11-21T02:52:25.802Z,35.3
2022-11-21T02:55:13.135Z,39.3
2022-11-21T02:58:04.824Z,34.3
2022-11-21T03:00:53.441Z,41.1
2022-11-21T03:03:41.541Z,34.5
2022-11-21T03:06:28.847Z,33.6
2022-11-21T03:09:16.137Z,39
2022-11-21T03:12:03.482Z,35.9
2022-11-21T03:14:51.911Z,40.2
2022-11-21T03:17:40.245Z,31.4
2022-11-21T03:20:28.028Z,34.2
2022-11-21T03:23:16.501Z,38.3
2022-11-21T03:26:03.846Z,35.6
2022-11-21T03:28:51.584Z,36
2022-11-21T03:31:39.930Z,34.9
2022-11-21T03:34:27.460Z,33.6
2022-11-21T03:37:15.037Z,32.2
2022-11-21T03:40:02.646Z,33.8
2022-11-21T03:42:52.177Z,31.2
2022-11-21T03:45:40.520Z,28.2
2022-11-21T03:48:30.614Z,32.9
2022-11-21T03:51:18.365Z,31.8
2022-11-21T03:54:06.446Z,28.2
2022-11-21T03:56:54.821Z,33.6
2022-11-21T03:59:42.105Z,30.4
2022-11-21T04:02:29.789Z,29.6
2022-11-21T04:05:17.178Z,29.5
2022-11-21T04:08:04.663Z,36.5
2022-11-21T04:10:51.958Z,33.9
2022-11-21T04:13:40.924Z,29.9
2022-11-21T04:16:28.373Z,27.2
2022-11-21T04:19:15.609Z,29.8
2022-11-21T04:22:02.860Z,30.3
2022-11-21T04:24:50.166Z,31.2
2022-11-21T04:27:37.830Z,29.2
2022-11-21T04:30:25.623Z,30.1
2022-11-21T04:33:14.279Z,28.1
2022-11-21T04:36:02.876Z,30.8
2022-11-21T04:38:50.401Z,28
2022-11-21T04:41:38.373Z,28.2
2022-11-21T04:44:26.034Z,28.9
2022-11-21T04:47:13.583Z,34.6
2022-11-21T04:50:00.884Z,33.5
2022-11-21T04:52:50.479Z,33.6
2022-11-21T04:55:39.909Z,32.9
2022-11-21T04:58:27.204Z,27.6
2022-11-21T05:01:14.543Z,30.2
2022-11-21T05:04:01.846Z,32.3
2022-11-21T05:06:49.499Z,35.2
2022-11-21T05:09:36.963Z,32.2
2022-11-21T05:12:24.326Z,31.8
2022-11-21T05:15:43.379Z,30.8
2022-11-21T05:18:31.040Z,32.1
2022-11-21T05:21:18.359Z,27
2022-11-21T05:24:05.535Z,31.1
2022-11-21T05:26:53.408Z,31.5
2022-11-21T05:29:41.741Z,39
2022-11-21T05:32:29.344Z,35.6
2022-11-21T05:35:16.716Z,36.1
2022-11-21T05:38:04.044Z,37.1
2022-11-21T05:40:51.577Z,45.1
2022-11-21T05:43:39.890Z,50.8
2022-11-21T05:46:34.685Z,46
2022-11-21T05:49:21.964Z,68.2
2022-11-21T05:52:09.290Z,71.9
2022-11-21T05:54:57.311Z,59.3
2022-11-21T05:57:46.606Z,46.8
2022-11-21T06:00:33.889Z,35.9
2022-11-21T06:03:21.589Z,33.3
2022-11-21T06:06:12.593Z,35
2022-11-21T06:09:01.144Z,36.4
2022-11-21T06:11:49.284Z,40.4
2022-11-21T06:14:36.749Z,38.6
2022-11-21T06:17:24.081Z,33.4
2022-11-21T06:20:11.381Z,36.1
2022-11-21T06:22:58.766Z,35.7
2022-11-21T06:25:46.160Z,35.8
2022-11-21T06:28:33.546Z,36.6
2022-11-21T06:31:22.835Z,35.4
2022-11-21T06:34:12.108Z,36.3
2022-11-21T06:36:59.373Z,38.1
2022-11-21T06:39:46.757Z,38.2
2022-11-21T06:42:34.109Z,36.7
2022-11-21T06:45:21.576Z,40
2022-11-21T06:48:08.833Z,44
2022-11-21T06:50:56.130Z,41
2022-11-21T06:53:43.599Z,45.3
2022-11-21T06:56:32.790Z,37.2
2022-11-21T06:59:20.063Z,39.7
2022-11-21T07:02:07.524Z,40.3
2022-11-21T07:04:57.585Z,38.6
2022-11-21T07:07:44.947Z,40.4
2022-11-21T07:10:32.385Z,38
2022-11-21T07:13:19.732Z,43.2
2022-11-21T07:16:07.239Z,42.8
2022-11-21T07:18:58.793Z,40.5
2022-11-21T07:21:46.096Z,45.4
2022-11-21T07:24:33.382Z,41.3
2022-11-21T07:27:20.598Z,38.7
2022-11-21T07:30:07.948Z,42
2022-11-21T07:32:56.239Z,42.6
2022-11-21T07:35:44.973Z,44.5
2022-11-21T07:38:32.221Z,39.9
2022-11-21T07:41:19.660Z,46.4
2022-11-21T07:44:07.081Z,45.5
2022-11-21T07:46:54.541Z,43
2022-11-21T07:49:42.404Z,37.8
2022-11-21T07:52:29.619Z,33
2022-11-21T07:55:17.122Z,44.2
2022-11-21T07:58:04.886Z,45.7
2022-11-21T08:00:54.432Z,57.4
2022-11-21T08:03:42.117Z,44.6
2022-11-21T08:06:29.516Z,40.4
2022-11-21T08:09:16.880Z,41.4
2022-11-21T08:12:04.011Z,41.5
2022-11-21T08:14:51.592Z,43.5
2022-11-21T08:17:39.959Z,48.2
2022-11-21T08:20:28.841Z,40.7
2022-11-21T08:23:16.158Z,46.1
2022-11-21T08:26:03.482Z,47.6
2022-11-21T08:28:59.797Z,45.4
2022-11-21T08:31:47.392Z,44.5
2022-11-21T08:34:34.603Z,42.5
2022-11-21T08:37:22.379Z,52
2022-11-21T08:40:09.619Z,51.1
2022-11-21T08:42:57.333Z,41.9
2022-11-21T08:45:45.500Z,46.1
2022-11-21T08:48:32.881Z,50.8
2022-11-21T08:51:20.300Z,49.7
2022-11-21T08:54:08.154Z,42
2022-11-21T08:56:55.729Z,50.9
2022-11-21T08:59:43.631Z,43.5
2022-11-21T09:02:31.105Z,41
2022-11-21T09:05:18.696Z,40.2
2022-11-21T09:08:06.202Z,41.5
2022-11-21T09:10:53.896Z,38.8
2022-11-21T09:13:42.362Z,39.3
2022-11-21T09:20:47.641Z,44.1
2022-11-21T09:23:35.061Z,42.6
2022-11-21T09:26:22.377Z,50.4
2022-11-21T09:29:09.630Z,39
2022-11-21T09:31:59.634Z,38.2
2022-11-21T09:34:47.036Z,40.3
2022-11-21T09:37:34.750Z,33.8
2022-11-21T09:40:22.601Z,38.8
2022-11-21T09:43:11.005Z,43.9
2022-11-21T09:46:11.351Z,40.6
2022-11-21T09:49:01.922Z,39.4
2022-11-21T09:51:54.678Z,41.1
2022-11-21T09:54:44.329Z,44.7
2022-11-21T09:57:35.804Z,43.7
2022-11-21T10:00:23.461Z,44.8
2022-11-21T10:07:18.425Z,45.4
2022-11-21T10:10:10.720Z,45.7
2022-11-21T10:13:21.146Z,42.8
2022-11-21T10:16:22.970Z,44.5
2022-11-21T10:19:18.973Z,40.6
2022-11-21T10:22:19.769Z,57.8
2022-11-21T10:25:27.172Z,97
2022-11-21T10:28:21.796Z,70.4
2022-11-21T10:31:18.840Z,55.9
2022-11-21T10:34:07.503Z,52.4
2022-11-21T10:36:59.393Z,48.9
2022-11-21T10:39:55.849Z,57.4
2022-11-21T10:42:59.478Z,45.6
2022-11-21T10:48:05.363Z,44.2
2022-11-21T10:50:55.483Z,42.8
2022-11-21T10:54:04.667Z,47.3
2022-11-21T10:57:28.312Z,39.8
2022-11-21T11:00:23.741Z,40.5
2022-11-21T11:03:12.458Z,42
2022-11-21T11:06:02.883Z,41.5
2022-11-21T11:08:50.376Z,42.4
2022-11-21T11:11:38.661Z,44
2022-11-21T11:14:26.186Z,47.7
2022-11-21T11:17:17.154Z,41.1
2022-11-21T11:20:14.432Z,45.7
2022-11-21T11:23:17.652Z,43.1
2022-11-21T11:26:13.009Z,44.1
2022-11-21T11:29:07.387Z,40.5
2022-11-21T11:32:00.034Z,45.8
2022-11-21T11:34:57.653Z,46.6
2022-11-21T11:37:47.514Z,43.6
2022-11-21T11:40:46.388Z,41.7
2022-11-21T11:43:33.605Z,49.8
2022-11-21T11:47:06.044Z,48.9
2022-11-21T11:50:18.660Z,45.9
2022-11-21T11:53:10.052Z,43.2
2022-11-21T11:56:03.300Z,48.6
2022-11-21T11:58:57.105Z,44.6
2022-11-21T12:01:52.400Z,50
2022-11-21T12:04:47.406Z,47.6
2022-11-21T12:08:38.830Z,48.3
2022-11-21T12:11:36.793Z,56
2022-11-21T12:14:52.098Z,52.3
2022-11-21T12:18:26.682Z,50.8
2022-11-21T12:21:22.109Z,47.1
2022-11-21T12:24:10.239Z,52.2
2022-11-21T12:26:58.121Z,50
2022-11-21T12:29:56.412Z,51
2022-11-21T12:33:08.535Z,52.3
2022-11-21T12:36:17.240Z,47.4
2022-11-21T12:39:16.793Z,50.6
2022-11-21T12:42:26.549Z,45.7
2022-11-21T12:45:40.841Z,54.3
2022-11-21T12:48:36.279Z,51.1
2022-11-21T12:52:10.852Z,45.7
2022-11-21T12:55:35.679Z,49
2022-11-21T12:58:24.826Z,48.8
2022-11-21T13:01:21.533Z,51.5
2022-11-21T13:04:20.490Z,56.7
2022-11-21T13:07:13.850Z,53.9
2022-11-21T13:10:02.187Z,51.9
2022-11-21T13:12:57.723Z,51.3
2022-11-21T13:15:55.199Z,50.5
2022-11-21T13:18:51.251Z,57.6
2022-11-21T13:21:41.476Z,53
2022-11-21T13:24:32.391Z,51.3
2022-11-21T13:27:55.032Z,47.9
2022-11-21T13:31:14.019Z,52.6
2022-11-21T13:34:18.231Z,50.6
2022-11-21T13:37:22.062Z,54.4
2022-11-21T13:40:46.541Z,46
2022-11-21T13:45:41.888Z,45.8
2022-11-21T13:48:32.928Z,53.6
2022-11-21T13:51:39.877Z,51.5
2022-11-21T13:54:37.581Z,53.4
2022-11-21T13:57:58.421Z,63.4
2022-11-21T14:00:59.162Z,60.6
2022-11-21T14:04:08.876Z,56.8
2022-11-21T14:07:20.055Z,61.1
2022-11-21T14:10:12.574Z,68.8
2022-11-21T14:13:15.542Z,61
2022-11-21T14:16:09.908Z,57.5
2022-11-21T14:19:11.081Z,60
2022-11-21T14:22:02.838Z,64.5
2022-11-21T14:24:50.192Z,72.5
2022-11-21T14:27:45.162Z,74.9
2022-11-21T14:30:38.020Z,62.9
2022-11-21T14:33:27.404Z,57.6
2022-11-21T14:36:17.845Z,66.5
2022-11-21T14:39:35.917Z,66.7
2022-11-21T14:42:26.752Z,57.6
2022-11-21T14:45:21.002Z,59.4
2022-11-21T14:48:09.954Z,69
2022-11-21T14:50:57.972Z,69.2
2022-11-21T14:53:47.122Z,68
2022-11-21T14:56:36.316Z,61
2022-11-21T14:59:26.377Z,67.4
2022-11-21T15:02:17.653Z,72.2
2022-11-21T15:05:06.907Z,70.5
2022-11-21T15:08:17.094Z,83.3
2022-11-21T15:11:22.542Z,73.1
2022-11-21T15:14:17.702Z,77.6
2022-11-21T15:17:10.607Z,82.4
2022-11-21T15:20:01.271Z,81
2022-11-21T15:22:52.971Z,78.3
2022-11-21T15:25:42.893Z,72.2
2022-11-21T15:28:31.849Z,71.5
2022-11-21T15:31:19.186Z,65.4
2022-11-21T15:34:35.186Z,73.3
2022-11-21T15:37:23.541Z,71.3
2022-11-21T15:40:12.345Z,70.3
2022-11-21T15:43:04.837Z,65.7
2022-11-21T15:45:54.202Z,60.7
2022-11-21T15:48:47.202Z,64
2022-11-21T15:52:00.089Z,64.7
2022-11-21T15:54:57.236Z,72.7
2022-11-21T15:57:44.472Z,62.3
2022-11-21T16:00:32.278Z,60.3
2022-11-21T16:03:20.187Z,58.7
2022-11-21T16:06:07.590Z,61.4
2022-11-21T16:08:55.209Z,62
2022-11-21T16:11:42.933Z,62.7
2022-11-21T16:14:30.499Z,54.2
2022-11-21T16:17:17.798Z,58.2
2022-11-21T16:20:05.403Z,60.5
2022-11-21T16:22:54.093Z,60.7
2022-11-21T16:25:42.471Z,65.6
2022-11-21T16:28:39.143Z,65.2
2022-11-21T16:31:26.477Z,70
2022-11-21T16:34:16.005Z,69.3
2022-11-21T16:37:07.586Z,66
2022-11-21T16:39:55.229Z,62.2
2022-11-21T16:42:42.527Z,62.8
2022-11-21T16:45:29.771Z,67.6
2022-11-21T16:48:17.851Z,73.5
2022-11-21T16:51:06.489Z,68.4
2022-11-21T16:53:57.045Z,73.5
2022-11-21T16:56:44.550Z,77.6
2022-11-21T16:59:31.940Z,60.3
2022-11-21T17:02:19.542Z,72.6
2022-11-21T17:05:07.294Z,72.2
2022-11-21T17:07:55.386Z,63
2022-11-21T17:10:43.538Z,69
2022-11-21T17:13:30.997Z,66.3
2022-11-21T17:16:18.515Z,68.7
2022-11-21T17:19:07.412Z,65.4
2022-11-21T17:21:56.885Z,64.6
2022-11-21T17:24:44.955Z,63.6
2022-11-21T17:27:32.335Z,66.9
2022-11-21T17:30:19.885Z,62.5
2022-11-21T17:33:07.285Z,61.8
2022-11-21T17:35:54.770Z,56.4
2022-11-21T17:38:42.140Z,71.1
2022-11-21T17:41:31.391Z,59.9
2022-11-21T17:44:18.699Z,62.3
2022-11-21T17:47:06.555Z,63.9
2022-11-21T17:49:54.244Z,64.5
2022-11-21T17:52:42.115Z,73.6
2022-11-21T17:55:30.458Z,79
2022-11-21T17:58:17.812Z,67.1
2022-11-21T18:01:05.310Z,71.3
2022-11-21T18:03:55.855Z,57.6
2022-11-21T18:06:45.062Z,66.3
2022-11-21T18:09:32.804Z,71.4
2022-11-21T18:12:20.105Z,40.4
2022-11-21T18:15:07.713Z,33.6
2022-11-21T18:17:55.867Z,28.8
2022-11-21T18:20:43.139Z,53.9
2022-11-21T18:23:30.616Z,54.2
2022-11-21T18:26:18.655Z,43.5
2022-11-21T18:29:35.579Z,29.5
2022-11-21T18:32:23.875Z,26.9
2022-11-21T18:35:11.113Z,19.5
2022-11-21T18:37:58.721Z,30.4
2022-11-21T18:40:46.024Z,46
2022-11-21T18:43:33.417Z,44
2022-11-21T18:46:20.882Z,52.4
2022-11-21T18:49:09.860Z,59
2022-11-21T18:51:57.185Z,57.9
2022-11-21T18:54:44.534Z,61.6
2022-11-21T18:57:32.117Z,59.8
2022-11-21T19:00:19.454Z,53.7
2022-11-21T19:03:07.064Z,52.7
2022-11-21T19:05:54.857Z,63.6
2022-11-21T19:08:42.570Z,69.2
2022-11-21T19:11:30.480Z,56.3
2022-11-21T19:14:17.809Z,65.7
2022-11-21T19:17:05.381Z,59.5
2022-11-21T19:19:53.021Z,64.6
2022-11-21T19:22:41.426Z,61.6
2022-11-21T19:25:28.715Z,58.7
2022-11-21T19:28:16.541Z,54.5
2022-11-21T19:31:03.853Z,57.5
2022-11-21T19:33:52.604Z,52.1
2022-11-21T19:36:41.114Z,51.3
2022-11-21T19:39:29.778Z,47.3
2022-11-21T19:42:17.377Z,37.6
2022-11-21T19:45:04.638Z,43.5
2022-11-21T19:47:53.642Z,44.6
2022-11-21T19:50:49.951Z,43.6
2022-11-21T19:53:41.693Z,46.1
2022-11-21T19:56:30.051Z,44
2022-11-21T19:59:18.029Z,51.1
2022-11-21T20:02:06.453Z,45.1
2022-11-21T20:05:01.514Z,45.6
2022-11-21T20:07:49.838Z,41.8
2022-11-21T20:10:37.138Z,47.3
2022-11-21T20:13:24.666Z,50.1
2022-11-21T20:16:11.993Z,48.4
2022-11-21T20:19:04.554Z,45.1
2022-11-21T20:21:54.599Z,53.3
2022-11-21T20:24:45.109Z,51.5
2022-11-21T20:27:36.275Z,48.2
2022-11-21T20:30:24.049Z,45.4
2022-11-21T20:33:12.371Z,42.2
2022-11-21T20:35:59.741Z,46.6
2022-11-21T20:38:50.189Z,53.5
2022-11-21T20:41:39.745Z,54.1
2022-11-21T20:45:20.242Z,52.9
2022-11-21T20:48:35.638Z,51
2022-11-21T20:54:41.735Z,48.2
2022-11-21T20:57:29.038Z,52.5
2022-11-21T21:00:16.396Z,51
2022-11-21T21:03:04.344Z,55.5
2022-11-21T21:05:51.793Z,49.8
2022-11-21T21:08:40.854Z,49.9
2022-11-21T21:11:50.517Z,52
2022-11-21T21:14:39.364Z,48.9
2022-11-21T21:17:26.725Z,49.9
2022-11-21T21:20:14.435Z,48
2022-11-21T21:23:01.900Z,52.4
2022-11-21T21:25:49.260Z,47.1
2022-11-21T21:28:36.557Z,49.9
2022-11-21T21:31:24.096Z,52.5
2022-11-21T21:34:12.926Z,52.1
2022-11-21T21:37:00.210Z,49.7
2022-11-21T21:39:47.618Z,48.9
2022-11-21T21:42:34.932Z,45.4
2022-11-21T21:45:22.155Z,56
2022-11-21T21:48:09.454Z,57.7
2022-11-21T21:50:56.913Z,60.8
2022-11-21T21:53:48.859Z,56.6
2022-11-21T21:56:38.458Z,55.3
2022-11-21T21:59:25.794Z,62
2022-11-21T22:02:13.203Z,48.6
2022-11-21T22:05:00.991Z,50.7
2022-11-21T22:07:48.681Z,43.8
2022-11-21T22:10:35.969Z,42.1
2022-11-21T22:13:23.554Z,49.4
2022-11-21T22:16:10.752Z,48.6
2022-11-21T22:18:59.141Z,48
2022-11-21T22:21:46.852Z,51.7
2022-11-21T22:24:34.173Z,46.3
2022-11-21T22:27:23.580Z,42.6
2022-11-21T22:30:10.907Z,54.8
2022-11-21T22:32:58.987Z,44.1
2022-11-21T22:35:46.432Z,37.4
2022-11-21T22:38:33.895Z,38.5
2022-11-21T22:41:21.716Z,42.1
2022-11-21T22:44:10.612Z,42.1
2022-11-21T22:46:58.281Z,35.5
2022-11-21T22:49:45.701Z,35.7
2022-11-21T22:52:33.135Z,34.1
2022-11-21T22:55:20.977Z,36.8
2022-11-21T22:58:08.738Z,33.2
2022-11-21T23:00:56.056Z,34.4
2022-11-21T23:03:45.535Z,33.6
2022-11-21T23:06:33.734Z,33.3
2022-11-21T23:09:21.068Z,31.3
2022-11-21T23:12:08.425Z,37
2022-11-21T23:14:56.080Z,33.1
2022-11-21T23:17:47.124Z,34
2022-11-21T23:20:37.344Z,33.3
2022-11-21T23:23:27.160Z,28.7
2022-11-21T23:26:15.397Z,29
2022-11-21T23:29:08.251Z,27.6
2022-11-21T23:31:55.965Z,28.2
2022-11-21T23:34:43.277Z,34.7
2022-11-21T23:37:30.519Z,33.8
2022-11-21T23:40:17.909Z,25.4
2022-11-21T23:43:05.264Z,31.3
2022-11-21T23:45:52.828Z,31.9
2022-11-21T23:48:41.309Z,33
2022-11-21T23:51:28.516Z,34.1
2022-11-21T23:54:15.832Z,32.8
2022-11-21T23:57:03.103Z,29.9
2022-11-21T23:59:50.483Z,29.7
